sensor_id;sensor_type;location;lat;lon;timestamp;temperature;humidity
24448;DHT22;13348;50.984;5.822;2023-04-08T17:35:34;11.70;99.90
24448;DHT22;13348;50.984;5.822;2023-04-08T17:38:01;11.80;99.90
24448;DHT22;13348;50.984;5.822;2023-04-08T17:40:28;11.70;99.90
24448;DHT22;13348;50.984;5.822;2023-04-08T17:42:55;11.60;99.90
24448;DHT22;13348;50.984;5.822;2023-04-08T17:45:22;11.50;99.90
24448;DHT22;13348;50.984;5.822;2023-04-08T17:47:49;11.40;99.90
24448;DHT22;13348;50.984;5.822;2023-04-08T17:50:17;11.30;99.90
24448;DHT22;13348;50.984;5.822;2023-04-08T17:52:45;11.30;99.90
24448;DHT22;13348;50.984;5.822;2023-04-08T17:55:12;11.20;99.90
24448;DHT22;13348;50.984;5.822;2023-04-08T17:57:39;11.10;99.90
24448;DHT22;13348;50.984;5.822;2023-04-08T18:00:06;11.00;99.90
24448;DHT22;13348;50.984;5.822;2023-04-08T18:02:33;10.90;99.90
24448;DHT22;13348;50.984;5.822;2023-04-08T18:05:01;10.80;99.90
24448;DHT22;13348;50.984;5.822;2023-04-08T18:07:28;10.70;99.90
24448;DHT22;13348;50.984;5.822;2023-04-08T18:09:57;10.70;99.90
24448;DHT22;13348;50.984;5.822;2023-04-08T18:12:23;10.60;99.90
24448;DHT22;13348;50.984;5.822;2023-04-08T18:14:51;10.60;99.90
24448;DHT22;13348;50.984;5.822;2023-04-08T18:17:18;10.50;99.90
24448;DHT22;13348;50.984;5.822;2023-04-08T18:19:45;10.50;99.90
24448;DHT22;13348;50.984;5.822;2023-04-08T18:22:12;10.50;99.90
24448;DHT22;13348;50.984;5.822;2023-04-08T18:24:38;10.50;99.90
24448;DHT22;13348;50.984;5.822;2023-04-08T18:27:07;10.50;99.90
24448;DHT22;13348;50.984;5.822;2023-04-08T18:29:34;10.50;99.90
24448;DHT22;13348;50.984;5.822;2023-04-08T18:32:01;10.50;99.90
24448;DHT22;13348;50.984;5.822;2023-04-08T18:34:28;10.50;99.90
24448;DHT22;13348;50.984;5.822;2023-04-08T18:36:56;10.50;99.90
24448;DHT22;13348;50.984;5.822;2023-04-08T18:39:24;10.40;99.90
24448;DHT22;13348;50.984;5.822;2023-04-08T18:41:51;10.40;99.90
24448;DHT22;13348;50.984;5.822;2023-04-08T18:44:20;10.30;99.90
24448;DHT22;13348;50.984;5.822;2023-04-08T18:46:47;10.30;99.90
24448;DHT22;13348;50.984;5.822;2023-04-08T18:49:14;10.20;99.90
24448;DHT22;13348;50.984;5.822;2023-04-08T18:51:41;10.10;99.90
24448;DHT22;13348;50.984;5.822;2023-04-08T18:54:09;10.10;99.90
24448;DHT22;13348;50.984;5.822;2023-04-08T18:56:36;10.10;99.90
24448;DHT22;13348;50.984;5.822;2023-04-08T18:59:03;10.20;99.90
24448;DHT22;13348;50.984;5.822;2023-04-08T19:01:31;10.20;99.90
24448;DHT22;13348;50.984;5.822;2023-04-08T19:04:00;10.20;99.90
24448;DHT22;13348;50.984;5.822;2023-04-08T19:06:27;10.20;99.90
24448;DHT22;13348;50.984;5.822;2023-04-08T19:08:54;10.20;99.90
24448;DHT22;13348;50.984;5.822;2023-04-08T19:11:21;10.20;99.90
24448;DHT22;13348;50.984;5.822;2023-04-08T19:13:53;10.20;99.90
24448;DHT22;13348;50.984;5.822;2023-04-08T19:16:20;10.30;99.90
24448;DHT22;13348;50.984;5.822;2023-04-08T19:18:48;10.30;99.90
24448;DHT22;13348;50.984;5.822;2023-04-08T19:21:15;10.30;99.90
24448;DHT22;13348;50.984;5.822;2023-04-08T19:23:42;10.30;99.90
24448;DHT22;13348;50.984;5.822;2023-04-08T19:26:10;10.20;99.90
24448;DHT22;13348;50.984;5.822;2023-04-08T19:28:37;10.20;99.90
24448;DHT22;13348;50.984;5.822;2023-04-08T19:31:04;10.30;99.90
24448;DHT22;13348;50.984;5.822;2023-04-08T19:33:39;10.30;99.90
24448;DHT22;13348;50.984;5.822;2023-04-08T19:36:07;10.20;99.90
24448;DHT22;13348;50.984;5.822;2023-04-08T19:38:34;10.20;99.90
24448;DHT22;13348;50.984;5.822;2023-04-08T19:41:01;10.20;99.90
24448;DHT22;13348;50.984;5.822;2023-04-08T19:43:28;10.30;99.90
24448;DHT22;13348;50.984;5.822;2023-04-08T19:45:56;10.30;99.90
24448;DHT22;13348;50.984;5.822;2023-04-08T19:48:23;10.30;99.90
24448;DHT22;13348;50.984;5.822;2023-04-08T19:50:50;10.30;99.90
24448;DHT22;13348;50.984;5.822;2023-04-08T19:53:18;10.30;99.90
24448;DHT22;13348;50.984;5.822;2023-04-08T19:55:45;10.40;99.90
24448;DHT22;13348;50.984;5.822;2023-04-08T19:58:12;10.50;99.90
24448;DHT22;13348;50.984;5.822;2023-04-08T20:00:39;10.40;99.90
24448;DHT22;13348;50.984;5.822;2023-04-08T20:03:06;10.40;99.90
24448;DHT22;13348;50.984;5.822;2023-04-08T20:05:33;10.40;99.90
24448;DHT22;13348;50.984;5.822;2023-04-08T20:08:00;10.40;99.90
24448;DHT22;13348;50.984;5.822;2023-04-08T20:10:28;10.40;99.90
24448;DHT22;13348;50.984;5.822;2023-04-08T20:12:55;10.40;99.90
24448;DHT22;13348;50.984;5.822;2023-04-08T20:15:22;10.30;99.90
24448;DHT22;13348;50.984;5.822;2023-04-08T20:17:49;10.30;99.90
24448;DHT22;13348;50.984;5.822;2023-04-08T20:20:17;10.30;99.90
24448;DHT22;13348;50.984;5.822;2023-04-08T20:22:43;10.30;99.90
24448;DHT22;13348;50.984;5.822;2023-04-08T20:25:11;10.30;99.90
24448;DHT22;13348;50.984;5.822;2023-04-08T20:27:39;10.20;99.90
24448;DHT22;13348;50.984;5.822;2023-04-08T20:30:06;10.20;99.90
24448;DHT22;13348;50.984;5.822;2023-04-08T20:32:34;10.20;99.90
24448;DHT22;13348;50.984;5.822;2023-04-08T20:35:01;10.20;99.90
24448;DHT22;13348;50.984;5.822;2023-04-08T20:37:28;10.20;99.90
24448;DHT22;13348;50.984;5.822;2023-04-08T20:39:55;10.20;99.90
24448;DHT22;13348;50.984;5.822;2023-04-08T20:42:22;10.30;99.90
24448;DHT22;13348;50.984;5.822;2023-04-08T20:44:50;10.20;99.90
24448;DHT22;13348;50.984;5.822;2023-04-08T20:47:18;10.20;99.90
24448;DHT22;13348;50.984;5.822;2023-04-08T20:49:45;10.20;99.90
24448;DHT22;13348;50.984;5.822;2023-04-08T20:52:12;10.20;99.90
24448;DHT22;13348;50.984;5.822;2023-04-08T20:54:39;10.20;99.90
24448;DHT22;13348;50.984;5.822;2023-04-08T20:57:06;10.20;99.90
24448;DHT22;13348;50.984;5.822;2023-04-08T20:59:33;10.20;99.90
24448;DHT22;13348;50.984;5.822;2023-04-08T21:02:01;10.20;99.90
24448;DHT22;13348;50.984;5.822;2023-04-08T21:04:29;10.20;99.90
24448;DHT22;13348;50.984;5.822;2023-04-08T21:06:56;10.20;99.90
24448;DHT22;13348;50.984;5.822;2023-04-08T21:09:23;10.10;99.90
24448;DHT22;13348;50.984;5.822;2023-04-08T21:11:50;10.10;99.90
24448;DHT22;13348;50.984;5.822;2023-04-08T21:14:17;10.10;99.90
24448;DHT22;13348;50.984;5.822;2023-04-08T21:16:44;10.00;99.90
24448;DHT22;13348;50.984;5.822;2023-04-08T21:19:12;10.00;99.90
24448;DHT22;13348;50.984;5.822;2023-04-08T21:21:39;10.00;99.90
24448;DHT22;13348;50.984;5.822;2023-04-08T21:24:06;10.00;99.90
24448;DHT22;13348;50.984;5.822;2023-04-08T21:26:34;10.00;99.90
24448;DHT22;13348;50.984;5.822;2023-04-08T21:29:01;9.90;99.90
24448;DHT22;13348;50.984;5.822;2023-04-08T21:31:28;9.90;99.90
24448;DHT22;13348;50.984;5.822;2023-04-08T21:33:55;9.90;99.90
24448;DHT22;13348;50.984;5.822;2023-04-08T21:36:23;9.80;99.90
24448;DHT22;13348;50.984;5.822;2023-04-08T21:38:52;9.70;99.90
24448;DHT22;13348;50.984;5.822;2023-04-08T21:41:19;9.70;99.90
24448;DHT22;13348;50.984;5.822;2023-04-08T21:43:46;9.70;99.90
24448;DHT22;13348;50.984;5.822;2023-04-08T21:46:13;9.70;99.90
24448;DHT22;13348;50.984;5.822;2023-04-08T21:48:40;9.60;99.90
24448;DHT22;13348;50.984;5.822;2023-04-08T21:51:07;9.60;99.90
24448;DHT22;13348;50.984;5.822;2023-04-08T21:53:35;9.60;99.90
24448;DHT22;13348;50.984;5.822;2023-04-08T21:56:02;9.60;99.90
24448;DHT22;13348;50.984;5.822;2023-04-08T21:58:29;9.60;99.90
24448;DHT22;13348;50.984;5.822;2023-04-08T22:00:55;9.60;99.90
24448;DHT22;13348;50.984;5.822;2023-04-08T22:03:22;9.50;99.90
24448;DHT22;13348;50.984;5.822;2023-04-08T22:05:49;9.60;99.90
24448;DHT22;13348;50.984;5.822;2023-04-08T22:08:16;9.50;99.90
24448;DHT22;13348;50.984;5.822;2023-04-08T22:10:44;9.50;99.90
24448;DHT22;13348;50.984;5.822;2023-04-08T22:13:11;9.50;99.90
24448;DHT22;13348;50.984;5.822;2023-04-08T22:15:38;9.50;99.90
24448;DHT22;13348;50.984;5.822;2023-04-08T22:18:05;9.40;99.90
24448;DHT22;13348;50.984;5.822;2023-04-08T22:20:32;9.40;99.90
24448;DHT22;13348;50.984;5.822;2023-04-08T22:22:59;9.30;99.90
24448;DHT22;13348;50.984;5.822;2023-04-08T22:25:26;9.30;99.90
24448;DHT22;13348;50.984;5.822;2023-04-08T22:27:54;9.30;99.90
24448;DHT22;13348;50.984;5.822;2023-04-08T22:30:21;9.30;99.90
24448;DHT22;13348;50.984;5.822;2023-04-08T22:32:48;9.20;99.90
24448;DHT22;13348;50.984;5.822;2023-04-08T22:35:15;9.20;99.90
24448;DHT22;13348;50.984;5.822;2023-04-08T22:37:42;9.20;99.90
24448;DHT22;13348;50.984;5.822;2023-04-08T22:40:09;9.10;99.90
24448;DHT22;13348;50.984;5.822;2023-04-08T22:42:36;9.00;99.90
24448;DHT22;13348;50.984;5.822;2023-04-08T22:45:05;9.00;99.90
24448;DHT22;13348;50.984;5.822;2023-04-08T22:47:32;9.00;99.90
24448;DHT22;13348;50.984;5.822;2023-04-08T22:49:58;9.00;99.90
